Tigerville, South Carolina
Current Conditions -  °F | °C
As of 1:53 PM on Thursday 27 Nov 2014 (Local Time) from KGMU Reporting Station
Clear Clear  
Wind Chill: 51°   Ceiling: Unl
Heat Index: 51°   Visibility: 10mi
Dew Point: 21°   Wind: 13mph
Humidity: 31%   Direction: 330°NNW
Pressure: 30.15"   Gusts: NA
Location:  35.07°N, 82.37°W
Report Text: KGMU 271853Z 33011KT 10SM CLR 11/M06 A3015 RMK AO2 SLP210 T01061061
Loading
Personal Weather Stations






























Interactive Weather Map New forecast layout! Learn more

10-Day Weather Forecast

Advertisements
Track Severe Weather on mobile